Venango Regional Airport
KFKL : rendu visible

Aérodrome :











RETROUVEZ-NOUS SUR...

 
LOGIN :

S'inscrire | Disclaimer

   EN    FR    IT 

 









Légende :    VFR   VFR Marginal   IFR   IFR Intensif   IFR Très Intensif
Visi : 
Plafond : 
>= 8 km
>= 3000ft
5 à 8 km
1000 à 3000 ft
1500m à 5 km
500 à 1000 ft
800 à 1500m
200 à 500 ft
< 800m
< 200 ft
Symboles :   Orages  Brouillard  Fortes neiges  Fortes précipitations  Vent > 20 kt






- Altitude de l'aérodrome : 1540 ft


KFKL - Venango Regional

DERNIER METAR :
  • 191456Z AUTO 00000KT 1/4SM FG OVC003 00/M01 A2980 RMK AO2 SLP107 T00001006 51013 FZRANO

METARs EXPIRÉS :
  • 191447Z AUTO 00000KT 1/2SM FG OVC003 00/M01 A2980 RMK AO2 FZRANO
  • 191356Z AUTO 00000KT M1/4SM FZFG OVC003 M01/M02 A2979 RMK AO2 SLP105 T10111017 FZRANO
  • 191256Z AUTO 21003KT M1/4SM FZFG OVC003 M02/M02 A2978 RMK AO2 SLP099 T10171022 FZRANO

TAF KFKL
Valide du 19 à 15h jusqu'au 20 à 12h UTC


191500Z 1915/2012 00000KT 1/2SM FG OVC003
TEMPO 1915/1917 1/4SM FG
FM191700 24003KT P6SM BKN020
FM200200 VRB03KT P6SM OVC007



MET'MAP, la Météo Aéronautique d'un coup d'oeil ! - Copyright ORBIFLY Décembre 2007 - Disclaimer

ORBIFLY MET'MAP TEAM :

Programmation & Développement : Alexandra Zaïnal
Conception & Développement : Baudouin d'Aumeries
Co-Programmation & Développement : Marc-Olivier Méhu
Soutien technique & logistique : Manuel Goepfert

Contact : metmap@orbifly.com




SOURCES & CREDITS :

   NOAA       Earth
Advisory